sensor_id;sensor_type;location;lat;lon;timestamp;pressure;altitude;pressure_sealevel;temperature;humidity
6136;BME280;24008;42.664;23.372;2023-03-14T00:01:54;94904.16;;;3.03;49.17
6136;BME280;24008;42.664;23.372;2023-03-14T00:04:20;94696.97;;;1.67;49.04
6136;BME280;24008;42.664;23.372;2023-03-14T00:06:49;94970.97;;;3.40;49.58
6136;BME280;24008;42.664;23.372;2023-03-14T00:09:16;94964.56;;;3.34;50.27
6136;BME280;24008;42.664;23.372;2023-03-14T00:11:43;94970.63;;;3.32;50.02
6136;BME280;24008;42.664;23.372;2023-03-14T00:14:11;94924.16;;;3.06;50.45
6136;BME280;24008;42.664;23.372;2023-03-14T00:16:38;94899.22;;;2.87;50.65
6136;BME280;24008;42.664;23.372;2023-03-14T00:19:05;94955.03;;;3.25;51.14
6136;BME280;24008;42.664;23.372;2023-03-14T00:21:32;94911.94;;;3.00;51.45
6136;BME280;24008;42.664;23.372;2023-03-14T00:24:00;94908.50;;;3.01;51.51
6136;BME280;24008;42.664;23.372;2023-03-14T00:26:27;94857.38;;;2.69;51.81
6136;BME280;24008;42.664;23.372;2023-03-14T00:28:54;94932.31;;;3.11;51.63
6136;BME280;24008;42.664;23.372;2023-03-14T00:31:22;94934.81;;;3.11;52.18
6136;BME280;24008;42.664;23.372;2023-03-14T00:33:52;94937.69;;;3.05;52.04
6136;BME280;24008;42.664;23.372;2023-03-14T00:36:20;94919.59;;;2.98;52.16
6136;BME280;24008;42.664;23.372;2023-03-14T00:38:49;94910.66;;;2.93;52.72
6136;BME280;24008;42.664;23.372;2023-03-14T00:41:19;94829.34;;;2.31;52.49
6136;BME280;24008;42.664;23.372;2023-03-14T00:43:47;94923.66;;;2.86;52.71
6136;BME280;24008;42.664;23.372;2023-03-14T00:46:15;94860.00;;;2.53;52.98
6136;BME280;24008;42.664;23.372;2023-03-14T00:48:44;94914.28;;;2.88;53.41
6136;BME280;24008;42.664;23.372;2023-03-14T00:51:10;94820.25;;;2.28;52.93
6136;BME280;24008;42.664;23.372;2023-03-14T00:53:39;94722.94;;;1.53;53.44
6136;BME280;24008;42.664;23.372;2023-03-14T00:56:09;94914.63;;;2.82;53.36
6136;BME280;24008;42.664;23.372;2023-03-14T00:58:37;94911.38;;;2.80;53.60
6136;BME280;24008;42.664;23.372;2023-03-14T01:01:09;94844.84;;;2.39;53.47
6136;BME280;24008;42.664;23.372;2023-03-14T01:03:36;94877.47;;;2.56;54.19
6136;BME280;24008;42.664;23.372;2023-03-14T01:06:10;94836.47;;;2.24;53.91
6136;BME280;24008;42.664;23.372;2023-03-14T01:08:38;94902.97;;;2.66;53.71
6136;BME280;24008;42.664;23.372;2023-03-14T01:11:07;94729.41;;;1.57;54.43
6136;BME280;24008;42.664;23.372;2023-03-14T01:13:34;94903.50;;;2.57;54.88
6136;BME280;24008;42.664;23.372;2023-03-14T01:16:03;94782.09;;;1.76;55.16
6136;BME280;24008;42.664;23.372;2023-03-14T01:18:32;94708.84;;;1.35;54.99
6136;BME280;24008;42.664;23.372;2023-03-14T01:20:59;94912.63;;;2.59;54.52
6136;BME280;24008;42.664;23.372;2023-03-14T01:23:25;94884.88;;;2.59;54.56
6136;BME280;24008;42.664;23.372;2023-03-14T01:25:52;94880.19;;;2.53;55.09
6136;BME280;24008;42.664;23.372;2023-03-14T01:28:19;94854.03;;;2.26;55.40
6136;BME280;24008;42.664;23.372;2023-03-14T01:30:46;94897.38;;;2.46;55.48
6136;BME280;24008;42.664;23.372;2023-03-14T01:33:14;94880.63;;;2.45;55.64
6136;BME280;24008;42.664;23.372;2023-03-14T01:35:41;94821.75;;;2.02;55.41
6136;BME280;24008;42.664;23.372;2023-03-14T01:38:08;94877.66;;;2.39;56.13
6136;BME280;24008;42.664;23.372;2023-03-14T01:40:41;94816.16;;;1.97;56.29
6136;BME280;24008;42.664;23.372;2023-03-14T01:43:14;94869.00;;;2.29;56.92
6136;BME280;24008;42.664;23.372;2023-03-14T01:48:50;94837.13;;;1.98;57.55
6136;BME280;24008;42.664;23.372;2023-03-14T01:51:21;94830.09;;;1.89;57.93
6136;BME280;24008;42.664;23.372;2023-03-14T01:53:49;94841.00;;;1.89;58.08
6136;BME280;24008;42.664;23.372;2023-03-14T01:56:18;94823.13;;;1.78;58.48
6136;BME280;24008;42.664;23.372;2023-03-14T01:58:49;94801.41;;;1.61;59.09
6136;BME280;24008;42.664;23.372;2023-03-14T02:01:20;94761.28;;;1.28;59.10
6136;BME280;24008;42.664;23.372;2023-03-14T02:03:52;94850.03;;;1.77;60.12
6136;BME280;24008;42.664;23.372;2023-03-14T02:06:24;94855.25;;;1.74;60.20
6136;BME280;24008;42.664;23.372;2023-03-14T02:08:53;94821.56;;;1.45;60.57
6136;BME280;24008;42.664;23.372;2023-03-14T02:11:21;94848.06;;;1.53;60.85
6136;BME280;24008;42.664;23.372;2023-03-14T02:13:48;94861.38;;;1.55;61.16
6136;BME280;24008;42.664;23.372;2023-03-14T02:16:15;94692.06;;;0.44;61.45
6136;BME280;24008;42.664;23.372;2023-03-14T02:18:42;94818.53;;;1.25;61.70
6136;BME280;24008;42.664;23.372;2023-03-14T02:21:16;94818.88;;;1.19;62.08
6136;BME280;24008;42.664;23.372;2023-03-14T02:23:51;94851.56;;;1.34;62.60
6136;BME280;24008;42.664;23.372;2023-03-14T02:26:23;94786.56;;;0.95;62.85
6136;BME280;24008;42.664;23.372;2023-03-14T02:28:54;94820.88;;;1.12;63.05
6136;BME280;24008;42.664;23.372;2023-03-14T02:31:22;94846.47;;;1.20;63.65
6136;BME280;24008;42.664;23.372;2023-03-14T02:33:50;94723.09;;;0.43;63.88
6136;BME280;24008;42.664;23.372;2023-03-14T02:36:19;94817.25;;;1.02;64.10
6136;BME280;24008;42.664;23.372;2023-03-14T02:38:51;94780.50;;;0.84;64.35
6136;BME280;24008;42.664;23.372;2023-03-14T02:41:19;94839.81;;;1.19;64.38
6136;BME280;24008;42.664;23.372;2023-03-14T02:43:46;94851.81;;;1.14;64.40
6136;BME280;24008;42.664;23.372;2023-03-14T02:46:17;94853.59;;;1.12;64.71
6136;BME280;24008;42.664;23.372;2023-03-14T02:48:46;94621.06;;;-0.40;64.98
6136;BME280;24008;42.664;23.372;2023-03-14T02:51:15;94792.31;;;0.66;65.00
6136;BME280;24008;42.664;23.372;2023-03-14T02:53:42;94830.06;;;0.82;65.24
6136;BME280;24008;42.664;23.372;2023-03-14T02:56:09;94852.81;;;0.96;65.19
6136;BME280;24008;42.664;23.372;2023-03-14T02:58:36;94784.13;;;0.47;66.04
6136;BME280;24008;42.664;23.372;2023-03-14T03:01:04;94858.66;;;0.96;65.90
6136;BME280;24008;42.664;23.372;2023-03-14T03:03:32;94862.28;;;0.91;66.70
6136;BME280;24008;42.664;23.372;2023-03-14T03:05:59;94863.19;;;0.90;67.08
6136;BME280;24008;42.664;23.372;2023-03-14T03:08:27;94853.84;;;0.92;67.21
6136;BME280;24008;42.664;23.372;2023-03-14T03:10:54;94788.16;;;0.49;67.62
6136;BME280;24008;42.664;23.372;2023-03-14T03:13:21;94856.22;;;0.95;67.79
6136;BME280;24008;42.664;23.372;2023-03-14T03:15:47;94858.00;;;0.93;67.81
6136;BME280;24008;42.664;23.372;2023-03-14T03:18:14;94722.28;;;0.11;67.86
6136;BME280;24008;42.664;23.372;2023-03-14T03:20:43;94816.16;;;0.75;68.28
6136;BME280;24008;42.664;23.372;2023-03-14T03:23:09;94826.16;;;0.76;68.34
6136;BME280;24008;42.664;23.372;2023-03-14T03:25:36;94856.03;;;0.98;68.05
6136;BME280;24008;42.664;23.372;2023-03-14T03:28:04;94504.69;;;-1.20;67.85
6136;BME280;24008;42.664;23.372;2023-03-14T03:30:33;94854.25;;;1.00;68.49
6136;BME280;24008;42.664;23.372;2023-03-14T03:33:00;94862.06;;;0.95;68.48
6136;BME280;24008;42.664;23.372;2023-03-14T03:35:27;94830.03;;;0.66;68.51
6136;BME280;24008;42.664;23.372;2023-03-14T03:37:55;94852.28;;;0.73;68.91
6136;BME280;24008;42.664;23.372;2023-03-14T03:40:22;94853.75;;;0.78;69.17
6136;BME280;24008;42.664;23.372;2023-03-14T03:42:48;94807.44;;;0.49;69.77
6136;BME280;24008;42.664;23.372;2023-03-14T03:45:15;94848.06;;;0.58;70.51
6136;BME280;24008;42.664;23.372;2023-03-14T03:47:42;94797.03;;;0.23;70.36
6136;BME280;24008;42.664;23.372;2023-03-14T03:50:10;94823.09;;;0.38;70.16
6136;BME280;24008;42.664;23.372;2023-03-14T03:52:36;94866.09;;;0.49;71.36
6136;BME280;24008;42.664;23.372;2023-03-14T03:55:05;94802.75;;;0.10;71.87
6136;BME280;24008;42.664;23.372;2023-03-14T03:57:32;94600.06;;;-1.22;70.98
6136;BME280;24008;42.664;23.372;2023-03-14T03:59:59;94874.25;;;0.37;70.81
6136;BME280;24008;42.664;23.372;2023-03-14T04:02:26;94876.94;;;0.34;71.15
6136;BME280;24008;42.664;23.372;2023-03-14T04:04:52;94877.09;;;0.31;70.93
6136;BME280;24008;42.664;23.372;2023-03-14T04:07:19;94817.03;;;-0.08;71.52
6136;BME280;24008;42.664;23.372;2023-03-14T04:09:46;94876.50;;;0.26;71.22
6136;BME280;24008;42.664;23.372;2023-03-14T04:12:14;94766.69;;;-0.40;71.16
6136;BME280;24008;42.664;23.372;2023-03-14T04:14:41;94872.34;;;0.25;71.44
6136;BME280;24008;42.664;23.372;2023-03-14T04:17:07;94845.31;;;0.13;71.27
6136;BME280;24008;42.664;23.372;2023-03-14T04:19:34;94844.94;;;0.03;71.52
6136;BME280;24008;42.664;23.372;2023-03-14T04:22:01;94788.81;;;-0.13;71.55
6136;BME280;24008;42.664;23.372;2023-03-14T04:24:28;94810.59;;;0.04;71.71
6136;BME280;24008;42.664;23.372;2023-03-14T04:26:55;94844.41;;;0.31;71.92
6136;BME280;24008;42.664;23.372;2023-03-14T04:29:24;94741.66;;;-0.41;72.00
6136;BME280;24008;42.664;23.372;2023-03-14T04:31:51;94794.06;;;-0.01;71.64
6136;BME280;24008;42.664;23.372;2023-03-14T04:34:18;94837.91;;;0.27;72.08
6136;BME280;24008;42.664;23.372;2023-03-14T04:36:44;94801.22;;;0.07;72.19
6136;BME280;24008;42.664;23.372;2023-03-14T04:39:11;94832.06;;;0.26;71.77
6136;BME280;24008;42.664;23.372;2023-03-14T04:41:38;94836.44;;;0.23;72.22
6136;BME280;24008;42.664;23.372;2023-03-14T04:44:05;94803.94;;;0.03;71.74
6136;BME280;24008;42.664;23.372;2023-03-14T04:46:33;94812.06;;;0.08;71.48
6136;BME280;24008;42.664;23.372;2023-03-14T04:49:00;94827.84;;;0.27;71.64
6136;BME280;24008;42.664;23.372;2023-03-14T04:51:26;94826.75;;;0.32;70.97
6136;BME280;24008;42.664;23.372;2023-03-14T04:53:53;94748.63;;;-0.13;70.65
6136;BME280;24008;42.664;23.372;2023-03-14T04:56:20;94821.63;;;0.34;70.99
6136;BME280;24008;42.664;23.372;2023-03-14T04:58:47;94814.44;;;0.44;70.85
6136;BME280;24008;42.664;23.372;2023-03-14T05:01:14;94806.75;;;0.47;70.99
6136;BME280;24008;42.664;23.372;2023-03-14T05:03:42;94808.44;;;0.46;70.89
6136;BME280;24008;42.664;23.372;2023-03-14T05:06:09;94816.41;;;0.54;70.73
6136;BME280;24008;42.664;23.372;2023-03-14T05:08:36;94809.88;;;0.50;70.94
6136;BME280;24008;42.664;23.372;2023-03-14T05:11:03;94816.53;;;0.51;71.36
6136;BME280;24008;42.664;23.372;2023-03-14T05:13:30;94793.66;;;0.40;71.10
6136;BME280;24008;42.664;23.372;2023-03-14T05:16:03;94724.66;;;-0.03;71.29
6136;BME280;24008;42.664;23.372;2023-03-14T05:18:30;94762.34;;;0.30;71.41
6136;BME280;24008;42.664;23.372;2023-03-14T05:20:59;94812.84;;;0.74;71.31
6136;BME280;24008;42.664;23.372;2023-03-14T05:23:26;94761.97;;;0.53;70.83
6136;BME280;24008;42.664;23.372;2023-03-14T05:25:53;94783.16;;;0.81;70.27
6136;BME280;24008;42.664;23.372;2023-03-14T05:28:20;94785.75;;;0.95;69.82
6136;BME280;24008;42.664;23.372;2023-03-14T05:30:46;94805.19;;;1.23;68.67
6136;BME280;24008;42.664;23.372;2023-03-14T05:33:13;94772.09;;;1.15;68.40
6136;BME280;24008;42.664;23.372;2023-03-14T05:35:41;94732.72;;;1.14;69.13
6136;BME280;24008;42.664;23.372;2023-03-14T05:38:09;94802.13;;;2.22;68.37
6136;BME280;24008;42.664;23.372;2023-03-14T05:40:36;94617.13;;;1.81;65.51
6136;BME280;24008;42.664;23.372;2023-03-14T05:43:03;94759.97;;;3.34;63.59
6136;BME280;24008;42.664;23.372;2023-03-14T05:45:30;94808.34;;;4.32;61.19
6136;BME280;24008;42.664;23.372;2023-03-14T05:48:06;94573.84;;;3.60;58.77
6136;BME280;24008;42.664;23.372;2023-03-14T05:50:33;94804.13;;;5.55;57.72
6136;BME280;24008;42.664;23.372;2023-03-14T05:53:00;94803.34;;;5.90;56.79
6136;BME280;24008;42.664;23.372;2023-03-14T05:55:28;94717.50;;;5.37;54.91
6136;BME280;24008;42.664;23.372;2023-03-14T05:57:55;94641.34;;;4.93;53.48
6136;BME280;24008;42.664;23.372;2023-03-14T06:00:22;94743.53;;;6.09;53.02
6136;BME280;24008;42.664;23.372;2023-03-14T06:02:49;94797.44;;;6.80;52.06
6136;BME280;24008;42.664;23.372;2023-03-14T06:05:15;94649.97;;;5.94;50.06
6136;BME280;24008;42.664;23.372;2023-03-14T06:07:42;94796.50;;;6.92;50.32
6136;BME280;24008;42.664;23.372;2023-03-14T06:10:10;94800.22;;;6.99;48.78
6136;BME280;24008;42.664;23.372;2023-03-14T06:12:38;94748.13;;;7.37;48.13
6136;BME280;24008;42.664;23.372;2023-03-14T06:15:06;94794.97;;;8.40;45.92
6136;BME280;24008;42.664;23.372;2023-03-14T06:17:33;94789.00;;;8.81;45.23
6136;BME280;24008;42.664;23.372;2023-03-14T06:20:00;94790.91;;;8.98;43.75
6136;BME280;24008;42.664;23.372;2023-03-14T06:22:26;94786.78;;;8.66;44.25
6136;BME280;24008;42.664;23.372;2023-03-14T06:24:53;94679.81;;;7.64;45.05
6136;BME280;24008;42.664;23.372;2023-03-14T06:27:20;94799.19;;;8.09;46.31
6136;BME280;24008;42.664;23.372;2023-03-14T06:29:48;94808.53;;;8.08;46.38
6136;BME280;24008;42.664;23.372;2023-03-14T06:32:15;94766.03;;;7.67;45.70
6136;BME280;24008;42.664;23.372;2023-03-14T06:34:43;94694.53;;;7.29;46.40
6136;BME280;24008;42.664;23.372;2023-03-14T06:37:10;94631.09;;;7.06;46.06
6136;BME280;24008;42.664;23.372;2023-03-14T06:39:37;94802.75;;;8.48;45.40
6136;BME280;24008;42.664;23.372;2023-03-14T06:42:04;94794.41;;;9.07;43.75
6136;BME280;24008;42.664;23.372;2023-03-14T06:44:31;94837.72;;;8.97;43.56
6136;BME280;24008;42.664;23.372;2023-03-14T06:46:59;94760.28;;;9.38;42.01
6136;BME280;24008;42.664;23.372;2023-03-14T06:49:26;94784.84;;;9.97;41.60
6136;BME280;24008;42.664;23.372;2023-03-14T06:51:53;94726.72;;;10.47;39.37
6136;BME280;24008;42.664;23.372;2023-03-14T06:54:20;94779.53;;;11.38;37.53
6136;BME280;24008;42.664;23.372;2023-03-14T06:56:47;94771.97;;;12.17;37.37
6136;BME280;24008;42.664;23.372;2023-03-14T06:59:13;94767.09;;;13.26;34.80
6136;BME280;24008;42.664;23.372;2023-03-14T07:01:40;94701.66;;;13.54;33.91
6136;BME280;24008;42.664;23.372;2023-03-14T07:04:09;94712.91;;;14.18;32.92
6136;BME280;24008;42.664;23.372;2023-03-14T07:06:36;94733.44;;;14.51;31.13
6136;BME280;24008;42.664;23.372;2023-03-14T07:09:04;94754.66;;;14.53;31.00
6136;BME280;24008;42.664;23.372;2023-03-14T07:11:31;94756.88;;;14.64;30.81
6136;BME280;24008;42.664;23.372;2023-03-14T07:13:58;94751.41;;;14.67;31.68
6136;BME280;24008;42.664;23.372;2023-03-14T07:16:25;94762.38;;;14.45;31.99
6136;BME280;24008;42.664;23.372;2023-03-14T07:18:54;94744.38;;;13.72;33.05
6136;BME280;24008;42.664;23.372;2023-03-14T07:21:22;94742.63;;;13.96;32.87
6136;BME280;24008;42.664;23.372;2023-03-14T07:23:49;94716.63;;;13.83;31.59
6136;BME280;24008;42.664;23.372;2023-03-14T07:26:16;94751.28;;;13.71;32.15
6136;BME280;24008;42.664;23.372;2023-03-14T07:28:42;94762.34;;;13.55;33.09
6136;BME280;24008;42.664;23.372;2023-03-14T07:31:09;94694.13;;;13.53;33.00
6136;BME280;24008;42.664;23.372;2023-03-14T07:33:36;94726.41;;;13.96;32.56
6136;BME280;24008;42.664;23.372;2023-03-14T07:36:03;94600.91;;;13.36;32.21
6136;BME280;24008;42.664;23.372;2023-03-14T07:38:32;94741.50;;;14.48;30.67
6136;BME280;24008;42.664;23.372;2023-03-14T07:40:59;94740.25;;;15.22;30.20
6136;BME280;24008;42.664;23.372;2023-03-14T07:43:45;94729.34;;;15.73;29.48
6136;BME280;24008;42.664;23.372;2023-03-14T07:46:32;94607.41;;;14.51;29.53
6136;BME280;24008;42.664;23.372;2023-03-14T07:49:19;94725.47;;;15.77;29.18
6136;BME280;24008;42.664;23.372;2023-03-14T07:52:06;94729.44;;;16.40;28.29
6136;BME280;24008;42.664;23.372;2023-03-14T07:54:55;94724.84;;;16.13;28.47
6136;BME280;24008;42.664;23.372;2023-03-14T07:57:42;94724.19;;;15.73;28.98
6136;BME280;24008;42.664;23.372;2023-03-14T08:00:10;94626.28;;;15.05;29.72
6136;BME280;24008;42.664;23.372;2023-03-14T08:02:38;94722.53;;;15.27;28.40
6136;BME280;24008;42.664;23.372;2023-03-14T08:05:05;94516.41;;;13.82;29.81
6136;BME280;24008;42.664;23.372;2023-03-14T08:07:33;94723.44;;;15.34;30.67
6136;BME280;24008;42.664;23.372;2023-03-14T08:10:22;94559.75;;;15.17;29.04
6136;BME280;24008;42.664;23.372;2023-03-14T08:13:01;94580.63;;;15.44;28.79
6136;BME280;24008;42.664;23.372;2023-03-14T08:15:29;94623.13;;;16.01;28.03
6136;BME280;24008;42.664;23.372;2023-03-14T08:17:56;94701.38;;;15.85;28.38
6136;BME280;24008;42.664;23.372;2023-03-14T08:20:24;94719.56;;;16.29;28.46
6136;BME280;24008;42.664;23.372;2023-03-14T08:22:51;94680.03;;;16.43;28.87
6136;BME280;24008;42.664;23.372;2023-03-14T08:25:18;94718.56;;;17.18;26.92
6136;BME280;24008;42.664;23.372;2023-03-14T08:27:46;94694.09;;;17.50;26.00
6136;BME280;24008;42.664;23.372;2023-03-14T08:30:15;94543.56;;;16.78;25.51
6136;BME280;24008;42.664;23.372;2023-03-14T08:32:42;94708.25;;;17.40;25.92
6136;BME280;24008;42.664;23.372;2023-03-14T08:35:10;94699.91;;;17.38;25.89
6136;BME280;24008;42.664;23.372;2023-03-14T08:37:37;94708.16;;;17.26;26.53
6136;BME280;24008;42.664;23.372;2023-03-14T08:40:05;94704.78;;;17.47;25.89
6136;BME280;24008;42.664;23.372;2023-03-14T08:42:32;94691.38;;;17.80;25.26
6136;BME280;24008;42.664;23.372;2023-03-14T08:45:01;94611.31;;;17.01;24.91
6136;BME280;24008;42.664;23.372;2023-03-14T08:47:28;94636.78;;;17.47;25.01
6136;BME280;24008;42.664;23.372;2023-03-14T08:49:55;94683.06;;;18.06;24.47
6136;BME280;24008;42.664;23.372;2023-03-14T08:52:21;94674.25;;;18.00;24.51
6136;BME280;24008;42.664;23.372;2023-03-14T08:54:49;94650.41;;;18.05;23.82
6136;BME280;24008;42.664;23.372;2023-03-14T08:57:16;94633.28;;;18.31;23.87
6136;BME280;24008;42.664;23.372;2023-03-14T08:59:43;94669.53;;;18.38;24.02
6136;BME280;24008;42.664;23.372;2023-03-14T09:02:11;94666.41;;;18.84;22.82
6136;BME280;24008;42.664;23.372;2023-03-14T09:04:38;94663.63;;;18.44;23.33
6136;BME280;24008;42.664;23.372;2023-03-14T09:07:05;94657.41;;;18.39;25.60
6136;BME280;24008;42.664;23.372;2023-03-14T09:09:32;94655.69;;;18.52;23.37
6136;BME280;24008;42.664;23.372;2023-03-14T09:11:59;94649.25;;;18.69;23.67
6136;BME280;24008;42.664;23.372;2023-03-14T09:14:26;94573.75;;;18.59;23.26
6136;BME280;24008;42.664;23.372;2023-03-14T09:16:53;94587.19;;;18.14;24.17
6136;BME280;24008;42.664;23.372;2023-03-14T09:19:21;94476.41;;;17.20;24.28
6136;BME280;24008;42.664;23.372;2023-03-14T09:21:48;94534.06;;;17.77;24.47
6136;BME280;24008;42.664;23.372;2023-03-14T09:24:15;94627.47;;;18.23;24.48
6136;BME280;24008;42.664;23.372;2023-03-14T09:26:42;94613.75;;;18.63;23.60
6136;BME280;24008;42.664;23.372;2023-03-14T09:29:09;94580.06;;;18.16;22.94
6136;BME280;24008;42.664;23.372;2023-03-14T09:31:36;94611.00;;;18.37;22.97
6136;BME280;24008;42.664;23.372;2023-03-14T09:34:03;94529.91;;;18.17;22.97
6136;BME280;24008;42.664;23.372;2023-03-14T09:36:31;94599.16;;;19.03;22.37
6136;BME280;24008;42.664;23.372;2023-03-14T09:38:58;94554.50;;;18.88;22.47
6136;BME280;24008;42.664;23.372;2023-03-14T09:41:27;94581.41;;;19.00;22.48
6136;BME280;24008;42.664;23.372;2023-03-14T09:44:02;94592.47;;;19.49;21.93
6136;BME280;24008;42.664;23.372;2023-03-14T09:46:31;94554.31;;;19.10;22.21
6136;BME280;24008;42.664;23.372;2023-03-14T09:48:59;94562.06;;;18.83;24.08
6136;BME280;24008;42.664;23.372;2023-03-14T09:51:27;94560.91;;;19.12;24.25
6136;BME280;24008;42.664;23.372;2023-03-14T09:53:55;94532.63;;;19.17;24.10
6136;BME280;24008;42.664;23.372;2023-03-14T09:56:42;94501.75;;;18.35;24.74
6136;BME280;24008;42.664;23.372;2023-03-14T09:59:12;94551.31;;;18.93;24.68
6136;BME280;24008;42.664;23.372;2023-03-14T10:01:39;94546.97;;;19.13;24.20
6136;BME280;24008;42.664;23.372;2023-03-14T10:04:25;94552.06;;;18.74;24.51
6136;BME280;24008;42.664;23.372;2023-03-14T10:07:14;94543.41;;;18.53;24.96
6136;BME280;24008;42.664;23.372;2023-03-14T10:09:45;94540.16;;;18.38;25.31
6136;BME280;24008;42.664;23.372;2023-03-14T10:12:14;94442.09;;;17.61;25.64
6136;BME280;24008;42.664;23.372;2023-03-14T10:14:46;94479.97;;;17.75;26.34
6136;BME280;24008;42.664;23.372;2023-03-14T10:17:14;94519.63;;;18.30;25.92
6136;BME280;24008;42.664;23.372;2023-03-14T10:19:53;94544.69;;;18.23;26.18
6136;BME280;24008;42.664;23.372;2023-03-14T10:22:21;94507.34;;;18.45;26.73
6136;BME280;24008;42.664;23.372;2023-03-14T10:24:54;94509.63;;;18.68;25.80
6136;BME280;24008;42.664;23.372;2023-03-14T10:27:28;94404.56;;;18.26;26.11
6136;BME280;24008;42.664;23.372;2023-03-14T10:29:57;94438.34;;;18.79;26.00
6136;BME280;24008;42.664;23.372;2023-03-14T10:32:29;94488.75;;;18.83;25.73
6136;BME280;24008;42.664;23.372;2023-03-14T10:35:19;94475.41;;;18.92;25.92
6136;BME280;24008;42.664;23.372;2023-03-14T10:37:55;94378.63;;;17.86;26.06
6136;BME280;24008;42.664;23.372;2023-03-14T10:40:27;94391.94;;;17.83;26.39
6136;BME280;24008;42.664;23.372;2023-03-14T10:42:57;94259.72;;;16.91;26.36
6136;BME280;24008;42.664;23.372;2023-03-14T10:45:31;94431.00;;;18.15;27.66
6136;BME280;24008;42.664;23.372;2023-03-14T10:48:06;94446.22;;;18.44;26.43
6136;BME280;24008;42.664;23.372;2023-03-14T10:50:33;94323.78;;;17.50;26.72
6136;BME280;24008;42.664;23.372;2023-03-14T10:53:02;94298.97;;;17.14;26.51
6136;BME280;24008;42.664;23.372;2023-03-14T10:55:41;94431.56;;;18.04;26.64
6136;BME280;24008;42.664;23.372;2023-03-14T10:58:22;94414.03;;;17.92;26.60
6136;BME280;24008;42.664;23.372;2023-03-14T11:00:54;94399.59;;;18.18;26.43
6136;BME280;24008;42.664;23.372;2023-03-14T11:03:24;94404.91;;;17.96;26.48
6136;BME280;24008;42.664;23.372;2023-03-14T11:05:56;94395.31;;;17.90;27.10
6136;BME280;24008;42.664;23.372;2023-03-14T11:08:25;94343.00;;;17.88;27.77
6136;BME280;24008;42.664;23.372;2023-03-14T11:11:05;94287.03;;;17.61;27.26
6136;BME280;24008;42.664;23.372;2023-03-14T11:13:37;94252.50;;;17.88;26.40
6136;BME280;24008;42.664;23.372;2023-03-14T11:16:09;94370.22;;;18.65;26.26
6136;BME280;24008;42.664;23.372;2023-03-14T11:19:03;94283.97;;;17.98;26.19
6136;BME280;24008;42.664;23.372;2023-03-14T11:21:42;94302.69;;;18.20;26.39
6136;BME280;24008;42.664;23.372;2023-03-14T11:24:27;94302.69;;;18.27;26.24
6136;BME280;24008;42.664;23.372;2023-03-14T11:27:04;94280.00;;;18.16;26.51
6136;BME280;24008;42.664;23.372;2023-03-14T11:29:39;94332.09;;;17.93;27.02
6136;BME280;24008;42.664;23.372;2023-03-14T11:32:12;94325.13;;;17.93;26.56
6136;BME280;24008;42.664;23.372;2023-03-14T11:34:45;94319.88;;;17.67;26.92
6136;BME280;24008;42.664;23.372;2023-03-14T11:37:22;94312.41;;;17.38;27.25
6136;BME280;24008;42.664;23.372;2023-03-14T11:39:57;94241.78;;;16.55;28.08
6136;BME280;24008;42.664;23.372;2023-03-14T11:42:28;94295.56;;;16.51;28.47
6136;BME280;24008;42.664;23.372;2023-03-14T11:44:56;94253.38;;;16.10;29.67
6136;BME280;24008;42.664;23.372;2023-03-14T11:47:26;94067.31;;;14.80;29.25
6136;BME280;24008;42.664;23.372;2023-03-14T11:49:58;94293.00;;;16.30;30.88
6136;BME280;24008;42.664;23.372;2023-03-14T11:52:31;94200.44;;;15.86;28.99
6136;BME280;24008;42.664;23.372;2023-03-14T11:55:03;94281.44;;;16.47;28.50
6136;BME280;24008;42.664;23.372;2023-03-14T11:57:33;94278.41;;;16.37;28.55
6136;BME280;24008;42.664;23.372;2023-03-14T12:00:04;94272.97;;;16.04;28.93
6136;BME280;24008;42.664;23.372;2023-03-14T12:02:46;94266.25;;;16.10;29.11
6136;BME280;24008;42.664;23.372;2023-03-14T12:05:36;94208.00;;;15.88;30.03
6136;BME280;24008;42.664;23.372;2023-03-14T12:08:29;94246.88;;;16.14;29.08
6136;BME280;24008;42.664;23.372;2023-03-14T12:11:01;94185.75;;;15.80;29.26
6136;BME280;24008;42.664;23.372;2023-03-14T12:13:32;94243.38;;;16.00;28.92
6136;BME280;24008;42.664;23.372;2023-03-14T12:16:04;93952.31;;;14.17;29.30
6136;BME280;24008;42.664;23.372;2023-03-14T12:18:33;94226.97;;;16.08;29.11
6136;BME280;24008;42.664;23.372;2023-03-14T12:21:05;94191.66;;;16.02;28.77
6136;BME280;24008;42.664;23.372;2023-03-14T12:23:36;94208.81;;;16.16;28.43
6136;BME280;24008;42.664;23.372;2023-03-14T12:26:15;94155.72;;;15.94;28.80
6136;BME280;24008;42.664;23.372;2023-03-14T12:28:49;93934.13;;;14.54;28.58
6136;BME280;24008;42.664;23.372;2023-03-14T12:31:37;94210.41;;;16.17;28.52
6136;BME280;24008;42.664;23.372;2023-03-14T12:34:28;94200.72;;;15.98;28.65
6136;BME280;24008;42.664;23.372;2023-03-14T12:40:02;94204.28;;;15.97;28.75
6136;BME280;24008;42.664;23.372;2023-03-14T12:42:40;94164.16;;;15.81;28.79
6136;BME280;24008;42.664;23.372;2023-03-14T12:45:24;94192.03;;;15.99;28.30
6136;BME280;24008;42.664;23.372;2023-03-14T12:48:17;94184.72;;;16.02;28.62
6136;BME280;24008;42.664;23.372;2023-03-14T12:50:54;94027.88;;;14.94;28.34
6136;BME280;24008;42.664;23.372;2023-03-14T12:53:42;94128.16;;;15.66;28.51
6136;BME280;24008;42.664;23.372;2023-03-14T12:56:28;94092.28;;;15.43;28.30
6136;BME280;24008;42.664;23.372;2023-03-14T12:59:10;94166.91;;;15.58;28.44
6136;BME280;24008;42.664;23.372;2023-03-14T13:01:47;94059.41;;;15.24;28.62
6136;BME280;24008;42.664;23.372;2023-03-14T13:04:26;94121.88;;;15.75;28.43
6136;BME280;24008;42.664;23.372;2023-03-14T13:06:55;94146.94;;;16.16;28.51
6136;BME280;24008;42.664;23.372;2023-03-14T13:12:29;94147.75;;;16.23;27.87
6136;BME280;24008;42.664;23.372;2023-03-14T13:14:59;94143.78;;;16.20;27.53
6136;BME280;24008;42.664;23.372;2023-03-14T13:17:31;94132.09;;;16.18;27.59
6136;BME280;24008;42.664;23.372;2023-03-14T13:20:02;94074.50;;;15.76;27.23
6136;BME280;24008;42.664;23.372;2023-03-14T13:22:33;93951.53;;;15.01;27.57
6136;BME280;24008;42.664;23.372;2023-03-14T13:25:04;94132.28;;;16.23;27.54
6136;BME280;24008;42.664;23.372;2023-03-14T13:27:33;94108.94;;;16.31;27.37
6136;BME280;24008;42.664;23.372;2023-03-14T13:30:11;93943.72;;;15.16;26.92